Terminal Aerodrome Forecast
Issued by NWS Sterling, VA

Current Version | Previous Version | Graphics & Text | Print | Product List | Glossary On
Versions: 1 2 3 4 5 6 7 8 9 10 11 12 13 14 15 16 17 18 19 20 21 22 23 24 25 26
000
FTUS41 KLWX 201139
TAFDCA
TAF
KDCA 201139Z 2012/2118 20005KT P6SM OVC015
     FM201400 24008G16KT P6SM BKN050
     FM202000 27010G18KT P6SM BKN050
     FM202300 31006KT P6SM SCT050 SCT200
     FM210500 02005KT P6SM SCT050 BKN200
     FM211600 13005KT P6SM BKN050=

USA.gov is the U.S. government's official web portal to all federal, state and local government web resources and services.